sensor_id;sensor_type;location;lat;lon;timestamp;P1;durP1;ratioP1;P2;durP2;ratioP2
9398;SDS011;4739;49.334;8.792;2022-12-24T00:02:17;3.47;;;1.40;;
9398;SDS011;4739;49.334;8.792;2022-12-24T00:04:43;3.73;;;1.60;;
9398;SDS011;4739;49.334;8.792;2022-12-24T00:07:08;2.70;;;1.40;;
9398;SDS011;4739;49.334;8.792;2022-12-24T00:09:34;5.93;;;2.03;;
9398;SDS011;4739;49.334;8.792;2022-12-24T00:11:59;5.00;;;2.37;;
9398;SDS011;4739;49.334;8.792;2022-12-24T00:14:25;5.90;;;1.67;;
9398;SDS011;4739;49.334;8.792;2022-12-24T00:16:51;3.67;;;2.00;;
9398;SDS011;4739;49.334;8.792;2022-12-24T00:19:16;5.07;;;1.70;;
9398;SDS011;4739;49.334;8.792;2022-12-24T00:21:42;3.57;;;1.43;;
9398;SDS011;4739;49.334;8.792;2022-12-24T00:24:08;4.07;;;1.83;;
9398;SDS011;4739;49.334;8.792;2022-12-24T00:26:33;7.60;;;1.80;;
9398;SDS011;4739;49.334;8.792;2022-12-24T00:28:59;6.07;;;1.50;;
9398;SDS011;4739;49.334;8.792;2022-12-24T00:31:25;3.93;;;1.40;;
9398;SDS011;4739;49.334;8.792;2022-12-24T00:33:50;4.73;;;2.60;;
9398;SDS011;4739;49.334;8.792;2022-12-24T00:36:17;6.57;;;1.90;;
9398;SDS011;4739;49.334;8.792;2022-12-24T00:38:43;3.57;;;1.50;;
9398;SDS011;4739;49.334;8.792;2022-12-24T00:41:09;5.00;;;1.83;;
9398;SDS011;4739;49.334;8.792;2022-12-24T00:43:54;7.53;;;2.57;;
9398;SDS011;4739;49.334;8.792;2022-12-24T00:46:22;7.30;;;1.97;;
9398;SDS011;4739;49.334;8.792;2022-12-24T00:48:49;6.07;;;2.00;;
9398;SDS011;4739;49.334;8.792;2022-12-24T00:51:15;6.70;;;1.63;;
9398;SDS011;4739;49.334;8.792;2022-12-24T00:53:40;6.73;;;1.90;;
9398;SDS011;4739;49.334;8.792;2022-12-24T00:56:06;5.30;;;2.27;;
9398;SDS011;4739;49.334;8.792;2022-12-24T00:58:32;5.27;;;1.97;;
9398;SDS011;4739;49.334;8.792;2022-12-24T01:00:58;6.23;;;1.90;;
9398;SDS011;4739;49.334;8.792;2022-12-24T01:03:24;5.43;;;2.13;;
9398;SDS011;4739;49.334;8.792;2022-12-24T01:06:14;5.33;;;1.57;;
9398;SDS011;4739;49.334;8.792;2022-12-24T01:08:43;8.73;;;2.37;;
9398;SDS011;4739;49.334;8.792;2022-12-24T01:11:09;6.17;;;1.60;;
9398;SDS011;4739;49.334;8.792;2022-12-24T01:13:36;5.73;;;2.00;;
9398;SDS011;4739;49.334;8.792;2022-12-24T01:16:02;7.63;;;2.00;;
9398;SDS011;4739;49.334;8.792;2022-12-24T01:18:36;6.47;;;2.40;;
9398;SDS011;4739;49.334;8.792;2022-12-24T01:21:03;7.97;;;1.90;;
9398;SDS011;4739;49.334;8.792;2022-12-24T01:23:29;8.53;;;2.30;;
9398;SDS011;4739;49.334;8.792;2022-12-24T01:25:58;9.77;;;2.10;;
9398;SDS011;4739;49.334;8.792;2022-12-24T01:28:25;8.03;;;1.90;;
9398;SDS011;4739;49.334;8.792;2022-12-24T01:30:51;6.00;;;1.70;;
9398;SDS011;4739;49.334;8.792;2022-12-24T01:33:16;4.10;;;1.83;;
9398;SDS011;4739;49.334;8.792;2022-12-24T01:35:42;3.33;;;1.63;;
9398;SDS011;4739;49.334;8.792;2022-12-24T01:38:08;4.73;;;1.83;;
9398;SDS011;4739;49.334;8.792;2022-12-24T01:40:36;8.90;;;2.10;;
9398;SDS011;4739;49.334;8.792;2022-12-24T01:43:21;8.17;;;1.93;;
9398;SDS011;4739;49.334;8.792;2022-12-24T01:48:22;6.87;;;1.50;;
9398;SDS011;4739;49.334;8.792;2022-12-24T01:53:57;4.60;;;1.53;;
9398;SDS011;4739;49.334;8.792;2022-12-24T01:56:26;7.20;;;1.97;;
9398;SDS011;4739;49.334;8.792;2022-12-24T01:58:55;6.90;;;1.80;;
9398;SDS011;4739;49.334;8.792;2022-12-24T02:01:24;8.43;;;1.77;;
9398;SDS011;4739;49.334;8.792;2022-12-24T02:03:50;7.70;;;1.97;;
9398;SDS011;4739;49.334;8.792;2022-12-24T02:06:15;6.60;;;1.70;;
9398;SDS011;4739;49.334;8.792;2022-12-24T02:08:43;5.47;;;1.93;;
9398;SDS011;4739;49.334;8.792;2022-12-24T02:11:12;5.73;;;2.30;;
9398;SDS011;4739;49.334;8.792;2022-12-24T02:13:43;5.07;;;1.77;;
9398;SDS011;4739;49.334;8.792;2022-12-24T02:19:01;6.80;;;1.90;;
9398;SDS011;4739;49.334;8.792;2022-12-24T02:25:04;8.97;;;2.20;;
9398;SDS011;4739;49.334;8.792;2022-12-24T02:30:32;7.07;;;2.00;;
9398;SDS011;4739;49.334;8.792;2022-12-24T02:33:32;6.57;;;1.97;;
9398;SDS011;4739;49.334;8.792;2022-12-24T02:36:04;6.77;;;1.80;;
9398;SDS011;4739;49.334;8.792;2022-12-24T02:38:46;7.97;;;1.73;;
9398;SDS011;4739;49.334;8.792;2022-12-24T02:41:21;8.33;;;1.53;;
9398;SDS011;4739;49.334;8.792;2022-12-24T02:44:15;7.43;;;1.63;;
9398;SDS011;4739;49.334;8.792;2022-12-24T02:46:43;8.83;;;1.80;;
9398;SDS011;4739;49.334;8.792;2022-12-24T02:49:09;5.93;;;1.70;;
9398;SDS011;4739;49.334;8.792;2022-12-24T02:51:35;6.40;;;1.60;;
9398;SDS011;4739;49.334;8.792;2022-12-24T02:54:01;6.93;;;1.80;;
9398;SDS011;4739;49.334;8.792;2022-12-24T03:07:16;7.33;;;1.83;;
9398;SDS011;4739;49.334;8.792;2022-12-24T03:13:02;6.40;;;1.90;;
9398;SDS011;4739;49.334;8.792;2022-12-24T03:15:28;8.80;;;1.93;;
9398;SDS011;4739;49.334;8.792;2022-12-24T03:17:56;9.67;;;2.23;;
9398;SDS011;4739;49.334;8.792;2022-12-24T03:20:26;9.13;;;2.40;;
9398;SDS011;4739;49.334;8.792;2022-12-24T03:23:02;6.23;;;1.70;;
9398;SDS011;4739;49.334;8.792;2022-12-24T03:25:29;9.67;;;2.67;;
9398;SDS011;4739;49.334;8.792;2022-12-24T03:27:57;11.07;;;2.07;;
9398;SDS011;4739;49.334;8.792;2022-12-24T03:30:26;8.50;;;2.30;;
9398;SDS011;4739;49.334;8.792;2022-12-24T03:32:52;5.53;;;1.47;;
9398;SDS011;4739;49.334;8.792;2022-12-24T03:35:18;8.97;;;1.97;;
9398;SDS011;4739;49.334;8.792;2022-12-24T03:37:44;4.57;;;1.70;;
9398;SDS011;4739;49.334;8.792;2022-12-24T03:40:09;7.57;;;1.97;;
9398;SDS011;4739;49.334;8.792;2022-12-24T03:42:35;8.23;;;1.93;;
9398;SDS011;4739;49.334;8.792;2022-12-24T03:45:01;4.83;;;1.70;;
9398;SDS011;4739;49.334;8.792;2022-12-24T03:47:27;7.50;;;2.00;;
9398;SDS011;4739;49.334;8.792;2022-12-24T03:49:52;6.47;;;1.90;;
9398;SDS011;4739;49.334;8.792;2022-12-24T03:52:18;7.00;;;1.90;;
9398;SDS011;4739;49.334;8.792;2022-12-24T03:54:43;11.43;;;2.13;;
9398;SDS011;4739;49.334;8.792;2022-12-24T03:57:09;6.80;;;1.70;;
9398;SDS011;4739;49.334;8.792;2022-12-24T03:59:34;6.20;;;2.20;;
9398;SDS011;4739;49.334;8.792;2022-12-24T04:02:00;10.47;;;2.57;;
9398;SDS011;4739;49.334;8.792;2022-12-24T04:04:25;7.80;;;2.00;;
9398;SDS011;4739;49.334;8.792;2022-12-24T04:06:51;8.27;;;2.03;;
9398;SDS011;4739;49.334;8.792;2022-12-24T04:09:16;8.73;;;2.57;;
9398;SDS011;4739;49.334;8.792;2022-12-24T04:11:42;9.33;;;2.20;;
9398;SDS011;4739;49.334;8.792;2022-12-24T04:14:08;6.17;;;2.20;;
9398;SDS011;4739;49.334;8.792;2022-12-24T04:16:33;8.57;;;2.30;;
9398;SDS011;4739;49.334;8.792;2022-12-24T04:18:59;11.30;;;3.03;;
9398;SDS011;4739;49.334;8.792;2022-12-24T04:21:24;7.53;;;2.23;;
9398;SDS011;4739;49.334;8.792;2022-12-24T04:23:50;10.30;;;2.60;;
9398;SDS011;4739;49.334;8.792;2022-12-24T04:26:15;10.20;;;2.87;;
9398;SDS011;4739;49.334;8.792;2022-12-24T04:28:41;10.97;;;2.60;;
9398;SDS011;4739;49.334;8.792;2022-12-24T04:31:08;9.90;;;3.43;;
9398;SDS011;4739;49.334;8.792;2022-12-24T04:33:36;7.10;;;2.33;;
9398;SDS011;4739;49.334;8.792;2022-12-24T04:36:03;14.53;;;3.17;;
9398;SDS011;4739;49.334;8.792;2022-12-24T04:38:30;11.87;;;2.80;;
9398;SDS011;4739;49.334;8.792;2022-12-24T04:40:57;8.07;;;2.00;;
9398;SDS011;4739;49.334;8.792;2022-12-24T04:43:24;14.00;;;3.43;;
9398;SDS011;4739;49.334;8.792;2022-12-24T04:45:50;9.80;;;2.40;;
9398;SDS011;4739;49.334;8.792;2022-12-24T04:48:15;8.63;;;2.30;;
9398;SDS011;4739;49.334;8.792;2022-12-24T04:50:41;10.53;;;3.03;;
9398;SDS011;4739;49.334;8.792;2022-12-24T04:53:06;9.17;;;2.90;;
9398;SDS011;4739;49.334;8.792;2022-12-24T04:55:32;8.63;;;2.50;;
9398;SDS011;4739;49.334;8.792;2022-12-24T04:57:57;9.57;;;2.60;;
9398;SDS011;4739;49.334;8.792;2022-12-24T05:00:23;9.60;;;2.40;;
9398;SDS011;4739;49.334;8.792;2022-12-24T05:02:49;8.33;;;2.40;;
9398;SDS011;4739;49.334;8.792;2022-12-24T05:05:14;9.30;;;2.80;;
9398;SDS011;4739;49.334;8.792;2022-12-24T05:07:40;9.87;;;2.70;;
9398;SDS011;4739;49.334;8.792;2022-12-24T05:10:05;9.30;;;2.80;;
9398;SDS011;4739;49.334;8.792;2022-12-24T05:12:31;13.90;;;3.20;;
9398;SDS011;4739;49.334;8.792;2022-12-24T05:14:57;8.03;;;2.00;;
9398;SDS011;4739;49.334;8.792;2022-12-24T05:17:23;8.70;;;2.47;;
9398;SDS011;4739;49.334;8.792;2022-12-24T05:22:19;8.37;;;2.20;;
9398;SDS011;4739;49.334;8.792;2022-12-24T05:25:03;10.93;;;2.70;;
9398;SDS011;4739;49.334;8.792;2022-12-24T05:27:47;7.93;;;2.50;;
9398;SDS011;4739;49.334;8.792;2022-12-24T05:30:13;8.60;;;2.40;;
9398;SDS011;4739;49.334;8.792;2022-12-24T05:32:38;11.27;;;2.90;;
9398;SDS011;4739;49.334;8.792;2022-12-24T05:35:04;10.87;;;2.60;;
9398;SDS011;4739;49.334;8.792;2022-12-24T05:37:30;11.10;;;2.93;;
9398;SDS011;4739;49.334;8.792;2022-12-24T05:39:55;9.20;;;2.90;;
9398;SDS011;4739;49.334;8.792;2022-12-24T05:42:21;12.43;;;3.30;;
9398;SDS011;4739;49.334;8.792;2022-12-24T05:44:46;11.67;;;3.20;;
9398;SDS011;4739;49.334;8.792;2022-12-24T05:47:12;11.67;;;2.80;;
9398;SDS011;4739;49.334;8.792;2022-12-24T05:49:37;12.90;;;3.80;;
9398;SDS011;4739;49.334;8.792;2022-12-24T05:52:03;15.07;;;4.07;;
9398;SDS011;4739;49.334;8.792;2022-12-24T05:54:29;8.57;;;2.73;;
9398;SDS011;4739;49.334;8.792;2022-12-24T05:56:54;9.27;;;2.77;;
9398;SDS011;4739;49.334;8.792;2022-12-24T05:59:20;11.03;;;3.47;;
9398;SDS011;4739;49.334;8.792;2022-12-24T06:01:45;11.70;;;2.80;;
9398;SDS011;4739;49.334;8.792;2022-12-24T06:04:12;9.83;;;2.90;;
9398;SDS011;4739;49.334;8.792;2022-12-24T06:06:38;12.70;;;2.97;;
9398;SDS011;4739;49.334;8.792;2022-12-24T06:09:03;13.63;;;3.40;;
9398;SDS011;4739;49.334;8.792;2022-12-24T06:11:29;10.67;;;3.13;;
9398;SDS011;4739;49.334;8.792;2022-12-24T06:13:55;9.23;;;3.27;;
9398;SDS011;4739;49.334;8.792;2022-12-24T06:16:21;14.87;;;3.67;;
9398;SDS011;4739;49.334;8.792;2022-12-24T06:18:47;12.57;;;3.10;;
9398;SDS011;4739;49.334;8.792;2022-12-24T06:21:13;12.87;;;3.47;;
9398;SDS011;4739;49.334;8.792;2022-12-24T06:23:40;11.00;;;2.83;;
9398;SDS011;4739;49.334;8.792;2022-12-24T06:26:08;12.77;;;3.20;;
9398;SDS011;4739;49.334;8.792;2022-12-24T06:28:36;11.63;;;2.97;;
9398;SDS011;4739;49.334;8.792;2022-12-24T06:31:03;15.53;;;3.77;;
9398;SDS011;4739;49.334;8.792;2022-12-24T06:33:30;12.83;;;3.67;;
9398;SDS011;4739;49.334;8.792;2022-12-24T06:35:56;9.67;;;2.73;;
9398;SDS011;4739;49.334;8.792;2022-12-24T06:38:22;9.67;;;3.10;;
9398;SDS011;4739;49.334;8.792;2022-12-24T06:40:48;18.13;;;4.07;;
9398;SDS011;4739;49.334;8.792;2022-12-24T06:43:13;13.23;;;3.60;;
9398;SDS011;4739;49.334;8.792;2022-12-24T06:45:43;15.23;;;3.97;;
9398;SDS011;4739;49.334;8.792;2022-12-24T06:48:10;12.27;;;3.47;;
9398;SDS011;4739;49.334;8.792;2022-12-24T06:50:35;11.57;;;3.00;;
9398;SDS011;4739;49.334;8.792;2022-12-24T06:53:01;11.30;;;3.27;;
9398;SDS011;4739;49.334;8.792;2022-12-24T06:55:27;14.03;;;4.23;;
9398;SDS011;4739;49.334;8.792;2022-12-24T06:57:52;14.10;;;3.90;;
9398;SDS011;4739;49.334;8.792;2022-12-24T07:00:18;13.33;;;3.30;;
9398;SDS011;4739;49.334;8.792;2022-12-24T07:02:45;15.23;;;3.43;;
9398;SDS011;4739;49.334;8.792;2022-12-24T07:05:12;13.07;;;3.13;;
9398;SDS011;4739;49.334;8.792;2022-12-24T07:07:38;15.10;;;3.23;;
9398;SDS011;4739;49.334;8.792;2022-12-24T07:10:06;13.53;;;2.93;;
9398;SDS011;4739;49.334;8.792;2022-12-24T07:12:32;11.17;;;3.40;;
9398;SDS011;4739;49.334;8.792;2022-12-24T07:14:58;9.73;;;2.73;;
9398;SDS011;4739;49.334;8.792;2022-12-24T07:17:24;15.73;;;4.37;;
9398;SDS011;4739;49.334;8.792;2022-12-24T07:22:20;12.67;;;3.57;;
9398;SDS011;4739;49.334;8.792;2022-12-24T07:24:46;11.27;;;3.17;;
9398;SDS011;4739;49.334;8.792;2022-12-24T07:27:11;14.97;;;3.73;;
9398;SDS011;4739;49.334;8.792;2022-12-24T07:29:37;17.77;;;4.40;;
9398;SDS011;4739;49.334;8.792;2022-12-24T07:32:03;13.33;;;3.10;;
9398;SDS011;4739;49.334;8.792;2022-12-24T07:34:28;13.37;;;2.90;;
9398;SDS011;4739;49.334;8.792;2022-12-24T07:36:54;12.53;;;3.37;;
9398;SDS011;4739;49.334;8.792;2022-12-24T07:39:19;11.93;;;3.30;;
9398;SDS011;4739;49.334;8.792;2022-12-24T07:41:45;16.60;;;3.20;;
9398;SDS011;4739;49.334;8.792;2022-12-24T07:44:14;12.27;;;4.00;;
9398;SDS011;4739;49.334;8.792;2022-12-24T07:46:40;12.33;;;3.83;;
9398;SDS011;4739;49.334;8.792;2022-12-24T07:49:06;14.50;;;3.97;;
9398;SDS011;4739;49.334;8.792;2022-12-24T07:51:32;10.73;;;3.27;;
9398;SDS011;4739;49.334;8.792;2022-12-24T07:53:57;11.77;;;4.07;;
9398;SDS011;4739;49.334;8.792;2022-12-24T07:56:23;15.60;;;3.90;;
9398;SDS011;4739;49.334;8.792;2022-12-24T07:58:49;17.03;;;5.30;;
9398;SDS011;4739;49.334;8.792;2022-12-24T08:01:15;10.57;;;4.00;;
9398;SDS011;4739;49.334;8.792;2022-12-24T08:03:41;14.47;;;3.27;;
9398;SDS011;4739;49.334;8.792;2022-12-24T08:06:07;13.83;;;3.70;;
9398;SDS011;4739;49.334;8.792;2022-12-24T08:08:33;14.73;;;4.13;;
9398;SDS011;4739;49.334;8.792;2022-12-24T08:10:59;15.97;;;3.93;;
9398;SDS011;4739;49.334;8.792;2022-12-24T08:13:26;17.53;;;4.67;;
9398;SDS011;4739;49.334;8.792;2022-12-24T08:15:52;10.77;;;3.43;;
9398;SDS011;4739;49.334;8.792;2022-12-24T08:18:18;16.27;;;4.87;;
9398;SDS011;4739;49.334;8.792;2022-12-24T08:20:43;11.07;;;3.80;;
9398;SDS011;4739;49.334;8.792;2022-12-24T08:23:09;14.07;;;4.50;;
9398;SDS011;4739;49.334;8.792;2022-12-24T08:25:35;15.00;;;4.00;;
9398;SDS011;4739;49.334;8.792;2022-12-24T08:28:01;13.60;;;3.43;;
9398;SDS011;4739;49.334;8.792;2022-12-24T08:30:26;11.97;;;4.20;;
9398;SDS011;4739;49.334;8.792;2022-12-24T08:32:52;11.90;;;3.27;;
9398;SDS011;4739;49.334;8.792;2022-12-24T08:35:18;13.63;;;3.30;;
9398;SDS011;4739;49.334;8.792;2022-12-24T08:37:44;10.63;;;3.30;;
9398;SDS011;4739;49.334;8.792;2022-12-24T08:40:10;12.10;;;3.47;;
9398;SDS011;4739;49.334;8.792;2022-12-24T08:42:36;9.70;;;3.87;;
9398;SDS011;4739;49.334;8.792;2022-12-24T08:45:01;14.93;;;3.70;;
9398;SDS011;4739;49.334;8.792;2022-12-24T08:47:27;15.40;;;4.13;;
9398;SDS011;4739;49.334;8.792;2022-12-24T08:49:53;12.47;;;3.70;;
9398;SDS011;4739;49.334;8.792;2022-12-24T08:52:18;12.40;;;3.77;;
9398;SDS011;4739;49.334;8.792;2022-12-24T08:54:44;16.80;;;4.17;;
9398;SDS011;4739;49.334;8.792;2022-12-24T08:57:09;10.37;;;3.60;;
9398;SDS011;4739;49.334;8.792;2022-12-24T08:59:35;9.27;;;2.90;;
9398;SDS011;4739;49.334;8.792;2022-12-24T09:02:01;14.70;;;3.90;;
9398;SDS011;4739;49.334;8.792;2022-12-24T09:04:26;10.87;;;3.63;;
9398;SDS011;4739;49.334;8.792;2022-12-24T09:06:52;13.20;;;3.43;;
9398;SDS011;4739;49.334;8.792;2022-12-24T09:09:17;11.00;;;3.30;;
9398;SDS011;4739;49.334;8.792;2022-12-24T09:11:43;13.07;;;4.50;;
9398;SDS011;4739;49.334;8.792;2022-12-24T09:14:09;12.20;;;3.20;;
9398;SDS011;4739;49.334;8.792;2022-12-24T09:16:35;12.50;;;4.00;;
9398;SDS011;4739;49.334;8.792;2022-12-24T09:19:01;13.83;;;3.77;;
9398;SDS011;4739;49.334;8.792;2022-12-24T09:21:26;18.47;;;4.13;;
9398;SDS011;4739;49.334;8.792;2022-12-24T09:23:52;13.97;;;3.40;;
9398;SDS011;4739;49.334;8.792;2022-12-24T09:28:45;11.83;;;4.63;;
9398;SDS011;4739;49.334;8.792;2022-12-24T09:31:11;16.17;;;4.30;;
9398;SDS011;4739;49.334;8.792;2022-12-24T09:33:38;14.23;;;3.83;;
9398;SDS011;4739;49.334;8.792;2022-12-24T09:36:05;13.97;;;4.00;;
9398;SDS011;4739;49.334;8.792;2022-12-24T09:38:31;13.70;;;3.00;;
9398;SDS011;4739;49.334;8.792;2022-12-24T09:40:59;14.47;;;4.10;;
9398;SDS011;4739;49.334;8.792;2022-12-24T09:43:26;11.00;;;4.03;;
9398;SDS011;4739;49.334;8.792;2022-12-24T09:48:26;16.07;;;4.93;;
9398;SDS011;4739;49.334;8.792;2022-12-24T09:51:02;22.57;;;4.47;;
9398;SDS011;4739;49.334;8.792;2022-12-24T09:56:31;13.30;;;3.73;;
9398;SDS011;4739;49.334;8.792;2022-12-24T09:59:03;14.77;;;3.70;;
9398;SDS011;4739;49.334;8.792;2022-12-24T10:01:31;15.27;;;3.80;;
9398;SDS011;4739;49.334;8.792;2022-12-24T10:03:59;12.13;;;3.40;;
9398;SDS011;4739;49.334;8.792;2022-12-24T10:06:32;12.33;;;4.27;;
9398;SDS011;4739;49.334;8.792;2022-12-24T10:11:45;8.93;;;3.50;;
9398;SDS011;4739;49.334;8.792;2022-12-24T10:28:22;12.90;;;3.57;;
9398;SDS011;4739;49.334;8.792;2022-12-24T10:31:24;13.13;;;4.30;;
9398;SDS011;4739;49.334;8.792;2022-12-24T10:34:02;15.30;;;4.43;;
9398;SDS011;4739;49.334;8.792;2022-12-24T10:36:36;15.47;;;4.10;;
9398;SDS011;4739;49.334;8.792;2022-12-24T10:39:01;15.47;;;3.27;;
9398;SDS011;4739;49.334;8.792;2022-12-24T10:41:27;13.57;;;3.93;;
9398;SDS011;4739;49.334;8.792;2022-12-24T10:43:54;14.73;;;3.20;;
9398;SDS011;4739;49.334;8.792;2022-12-24T10:46:30;12.43;;;3.83;;
9398;SDS011;4739;49.334;8.792;2022-12-24T10:49:01;17.37;;;3.93;;
9398;SDS011;4739;49.334;8.792;2022-12-24T10:54:16;8.87;;;3.00;;
9398;SDS011;4739;49.334;8.792;2022-12-24T10:56:45;13.30;;;3.40;;
9398;SDS011;4739;49.334;8.792;2022-12-24T10:59:27;15.87;;;3.97;;
9398;SDS011;4739;49.334;8.792;2022-12-24T11:01:55;11.67;;;3.57;;
9398;SDS011;4739;49.334;8.792;2022-12-24T11:04:23;14.50;;;4.00;;
9398;SDS011;4739;49.334;8.792;2022-12-24T11:11:50;15.27;;;3.17;;
9398;SDS011;4739;49.334;8.792;2022-12-24T11:14:17;14.00;;;3.83;;
9398;SDS011;4739;49.334;8.792;2022-12-24T11:16:48;18.40;;;3.73;;
9398;SDS011;4739;49.334;8.792;2022-12-24T11:19:23;11.27;;;3.87;;
9398;SDS011;4739;49.334;8.792;2022-12-24T11:22:20;11.70;;;3.40;;
9398;SDS011;4739;49.334;8.792;2022-12-24T11:27:46;15.00;;;3.23;;
9398;SDS011;4739;49.334;8.792;2022-12-24T11:35:25;11.40;;;3.33;;
9398;SDS011;4739;49.334;8.792;2022-12-24T11:40:31;11.90;;;3.43;;
9398;SDS011;4739;49.334;8.792;2022-12-24T11:43:03;9.97;;;3.00;;
9398;SDS011;4739;49.334;8.792;2022-12-24T11:45:31;13.90;;;3.23;;
9398;SDS011;4739;49.334;8.792;2022-12-24T11:47:58;11.83;;;3.27;;
9398;SDS011;4739;49.334;8.792;2022-12-24T11:58:14;13.53;;;3.40;;
9398;SDS011;4739;49.334;8.792;2022-12-24T12:00:47;13.23;;;3.40;;
9398;SDS011;4739;49.334;8.792;2022-12-24T12:03:37;14.33;;;3.97;;
9398;SDS011;4739;49.334;8.792;2022-12-24T12:06:09;11.57;;;3.10;;
9398;SDS011;4739;49.334;8.792;2022-12-24T12:08:49;11.20;;;3.33;;
9398;SDS011;4739;49.334;8.792;2022-12-24T12:11:23;12.57;;;3.13;;
9398;SDS011;4739;49.334;8.792;2022-12-24T12:13:51;12.37;;;4.07;;
9398;SDS011;4739;49.334;8.792;2022-12-24T12:19:02;8.43;;;3.00;;
9398;SDS011;4739;49.334;8.792;2022-12-24T12:21:31;10.27;;;3.40;;
9398;SDS011;4739;49.334;8.792;2022-12-24T12:24:05;7.57;;;3.60;;
9398;SDS011;4739;49.334;8.792;2022-12-24T12:26:37;10.77;;;4.03;;
9398;SDS011;4739;49.334;8.792;2022-12-24T12:32:20;12.73;;;3.80;;
9398;SDS011;4739;49.334;8.792;2022-12-24T12:37:55;11.93;;;3.83;;
9398;SDS011;4739;49.334;8.792;2022-12-24T12:40:22;14.53;;;5.10;;
9398;SDS011;4739;49.334;8.792;2022-12-24T12:51:17;12.40;;;3.93;;
9398;SDS011;4739;49.334;8.792;2022-12-24T12:54:05;13.60;;;3.63;;
9398;SDS011;4739;49.334;8.792;2022-12-24T12:56:40;14.20;;;3.50;;
9398;SDS011;4739;49.334;8.792;2022-12-24T12:59:16;12.13;;;4.13;;
9398;SDS011;4739;49.334;8.792;2022-12-24T13:07:42;13.60;;;3.60;;
9398;SDS011;4739;49.334;8.792;2022-12-24T13:13:01;14.07;;;3.53;;
9398;SDS011;4739;49.334;8.792;2022-12-24T13:15:56;15.93;;;4.07;;
9398;SDS011;4739;49.334;8.792;2022-12-24T13:21:22;16.73;;;4.50;;
9398;SDS011;4739;49.334;8.792;2022-12-24T13:23:49;10.10;;;3.80;;
9398;SDS011;4739;49.334;8.792;2022-12-24T13:26:28;12.87;;;4.53;;
9398;SDS011;4739;49.334;8.792;2022-12-24T13:28:53;13.40;;;4.60;;
9398;SDS011;4739;49.334;8.792;2022-12-24T13:33:46;12.83;;;4.17;;
9398;SDS011;4739;49.334;8.792;2022-12-24T13:36:14;18.93;;;4.47;;
9398;SDS011;4739;49.334;8.792;2022-12-24T13:38:47;13.77;;;3.43;;
9398;SDS011;4739;49.334;8.792;2022-12-24T13:49:42;14.40;;;4.13;;
9398;SDS011;4739;49.334;8.792;2022-12-24T13:59:52;13.70;;;3.37;;
9398;SDS011;4739;49.334;8.792;2022-12-24T14:02:56;14.57;;;3.37;;
9398;SDS011;4739;49.334;8.792;2022-12-24T14:05:32;13.03;;;3.00;;
9398;SDS011;4739;49.334;8.792;2022-12-24T14:08:03;12.97;;;3.57;;
9398;SDS011;4739;49.334;8.792;2022-12-24T14:10:44;12.73;;;3.17;;
9398;SDS011;4739;49.334;8.792;2022-12-24T14:19:32;14.83;;;3.27;;
9398;SDS011;4739;49.334;8.792;2022-12-24T14:24:26;11.83;;;2.97;;
9398;SDS011;4739;49.334;8.792;2022-12-24T14:26:57;13.90;;;6.20;;
9398;SDS011;4739;49.334;8.792;2022-12-24T14:29:33;16.07;;;5.90;;
9398;SDS011;4739;49.334;8.792;2022-12-24T14:32:11;16.37;;;6.00;;
9398;SDS011;4739;49.334;8.792;2022-12-24T14:34:38;19.23;;;8.73;;
9398;SDS011;4739;49.334;8.792;2022-12-24T14:37:03;17.73;;;8.30;;
9398;SDS011;4739;49.334;8.792;2022-12-24T14:39:31;38.43;;;18.63;;
9398;SDS011;4739;49.334;8.792;2022-12-24T14:56:14;9.67;;;3.17;;
9398;SDS011;4739;49.334;8.792;2022-12-24T14:58:41;12.97;;;3.73;;
9398;SDS011;4739;49.334;8.792;2022-12-24T15:01:24;9.00;;;2.60;;
9398;SDS011;4739;49.334;8.792;2022-12-24T15:06:36;8.13;;;2.70;;
9398;SDS011;4739;49.334;8.792;2022-12-24T15:09:23;7.57;;;3.17;;
9398;SDS011;4739;49.334;8.792;2022-12-24T15:11:51;10.13;;;3.00;;
9398;SDS011;4739;49.334;8.792;2022-12-24T15:14:19;8.27;;;2.87;;
9398;SDS011;4739;49.334;8.792;2022-12-24T15:17:03;7.60;;;2.47;;
9398;SDS011;4739;49.334;8.792;2022-12-24T15:19:33;8.30;;;2.53;;
9398;SDS011;4739;49.334;8.792;2022-12-24T15:22:24;5.60;;;2.50;;
9398;SDS011;4739;49.334;8.792;2022-12-24T15:24:53;9.07;;;2.53;;
9398;SDS011;4739;49.334;8.792;2022-12-24T15:27:20;10.03;;;2.43;;
9398;SDS011;4739;49.334;8.792;2022-12-24T15:29:49;6.77;;;2.40;;
9398;SDS011;4739;49.334;8.792;2022-12-24T15:32:17;9.87;;;2.50;;
9398;SDS011;4739;49.334;8.792;2022-12-24T15:34:45;7.97;;;2.77;;
9398;SDS011;4739;49.334;8.792;2022-12-24T15:37:16;7.13;;;2.57;;
9398;SDS011;4739;49.334;8.792;2022-12-24T15:39:57;4.70;;;2.60;;
9398;SDS011;4739;49.334;8.792;2022-12-24T15:42:24;7.73;;;2.53;;
9398;SDS011;4739;49.334;8.792;2022-12-24T15:47:29;8.83;;;2.77;;
9398;SDS011;4739;49.334;8.792;2022-12-24T15:52:43;8.23;;;2.83;;
9398;SDS011;4739;49.334;8.792;2022-12-24T15:55:26;9.40;;;3.00;;
9398;SDS011;4739;49.334;8.792;2022-12-24T15:57:52;7.67;;;3.20;;
9398;SDS011;4739;49.334;8.792;2022-12-24T16:00:22;11.47;;;3.07;;
9398;SDS011;4739;49.334;8.792;2022-12-24T16:02:51;8.70;;;2.63;;
9398;SDS011;4739;49.334;8.792;2022-12-24T16:07:59;10.67;;;3.80;;
9398;SDS011;4739;49.334;8.792;2022-12-24T16:10:31;8.47;;;3.70;;
9398;SDS011;4739;49.334;8.792;2022-12-24T16:12:56;7.70;;;2.73;;
9398;SDS011;4739;49.334;8.792;2022-12-24T16:15:22;8.07;;;2.77;;
9398;SDS011;4739;49.334;8.792;2022-12-24T16:17:48;8.30;;;3.13;;
9398;SDS011;4739;49.334;8.792;2022-12-24T16:20:18;9.13;;;3.30;;
9398;SDS011;4739;49.334;8.792;2022-12-24T16:22:46;7.83;;;2.80;;
9398;SDS011;4739;49.334;8.792;2022-12-24T16:27:47;12.03;;;3.33;;
9398;SDS011;4739;49.334;8.792;2022-12-24T16:30:14;10.77;;;3.13;;
9398;SDS011;4739;49.334;8.792;2022-12-24T16:32:39;7.77;;;3.80;;
9398;SDS011;4739;49.334;8.792;2022-12-24T16:35:24;8.60;;;3.57;;
9398;SDS011;4739;49.334;8.792;2022-12-24T16:37:51;8.47;;;3.43;;
9398;SDS011;4739;49.334;8.792;2022-12-24T16:40:18;14.83;;;3.90;;
9398;SDS011;4739;49.334;8.792;2022-12-24T16:42:44;10.67;;;4.63;;
9398;SDS011;4739;49.334;8.792;2022-12-24T16:45:28;8.90;;;3.67;;
9398;SDS011;4739;49.334;8.792;2022-12-24T16:47:58;9.80;;;3.57;;
9398;SDS011;4739;49.334;8.792;2022-12-24T16:50:24;9.37;;;3.50;;
9398;SDS011;4739;49.334;8.792;2022-12-24T16:52:50;8.63;;;3.80;;
9398;SDS011;4739;49.334;8.792;2022-12-24T16:55:16;7.17;;;3.33;;
9398;SDS011;4739;49.334;8.792;2022-12-24T16:57:41;7.53;;;3.30;;
9398;SDS011;4739;49.334;8.792;2022-12-24T17:00:15;12.20;;;3.80;;
9398;SDS011;4739;49.334;8.792;2022-12-24T17:02:43;8.50;;;3.87;;
9398;SDS011;4739;49.334;8.792;2022-12-24T17:05:10;9.60;;;3.50;;
9398;SDS011;4739;49.334;8.792;2022-12-24T17:07:35;7.40;;;3.50;;
9398;SDS011;4739;49.334;8.792;2022-12-24T17:10:01;9.87;;;4.00;;
9398;SDS011;4739;49.334;8.792;2022-12-24T17:12:27;13.77;;;4.30;;
9398;SDS011;4739;49.334;8.792;2022-12-24T17:14:52;12.47;;;4.83;;
9398;SDS011;4739;49.334;8.792;2022-12-24T17:17:20;18.77;;;7.77;;
9398;SDS011;4739;49.334;8.792;2022-12-24T17:22:20;12.57;;;5.03;;
9398;SDS011;4739;49.334;8.792;2022-12-24T17:24:47;10.77;;;5.13;;
9398;SDS011;4739;49.334;8.792;2022-12-24T17:27:12;14.20;;;4.90;;
9398;SDS011;4739;49.334;8.792;2022-12-24T17:29:38;11.40;;;5.37;;
9398;SDS011;4739;49.334;8.792;2022-12-24T17:32:04;15.90;;;5.03;;
9398;SDS011;4739;49.334;8.792;2022-12-24T17:34:29;13.57;;;5.77;;
9398;SDS011;4739;49.334;8.792;2022-12-24T17:36:55;12.67;;;7.17;;
9398;SDS011;4739;49.334;8.792;2022-12-24T17:39:21;9.63;;;4.73;;
9398;SDS011;4739;49.334;8.792;2022-12-24T17:41:46;14.60;;;5.67;;
9398;SDS011;4739;49.334;8.792;2022-12-24T17:44:12;11.00;;;4.87;;
9398;SDS011;4739;49.334;8.792;2022-12-24T17:46:38;12.50;;;5.47;;
9398;SDS011;4739;49.334;8.792;2022-12-24T17:49:03;11.33;;;5.33;;
9398;SDS011;4739;49.334;8.792;2022-12-24T17:51:29;9.23;;;5.07;;
9398;SDS011;4739;49.334;8.792;2022-12-24T17:53:57;9.03;;;5.40;;
9398;SDS011;4739;49.334;8.792;2022-12-24T17:56:24;9.43;;;5.73;;
9398;SDS011;4739;49.334;8.792;2022-12-24T17:58:50;12.23;;;5.70;;
9398;SDS011;4739;49.334;8.792;2022-12-24T18:01:20;10.53;;;6.20;;
9398;SDS011;4739;49.334;8.792;2022-12-24T18:03:47;11.20;;;7.37;;
9398;SDS011;4739;49.334;8.792;2022-12-24T18:06:14;10.20;;;6.87;;
9398;SDS011;4739;49.334;8.792;2022-12-24T18:08:41;7.67;;;5.30;;